Fort Hill, Arkansas
Current Conditions -  °F | °C
As of 10:53 PM on Wednesday 17 Dec 2014 (Local Time) from KLLQ Reporting Station
Overcast Overcast  
Wind Chill: 38°   Ceiling: 7000
Heat Index: 43°   Visibility: 10mi
Dew Point: 35°   Wind: 8mph
Humidity: 74%   Direction: 60°ENE
Pressure: 30.24"   Gusts: NA
Location:  33.3446°N, 91.821°W
Report Text: KLLQ 180453Z AUTO 06007KT 10SM OVC070 06/02 A3024 RMK AO2 SLP240 T00610017
Loading
Personal Weather Stations






























Interactive Weather Map New forecast layout! Learn more

10-Day Weather Forecast

Advertisements
Track Severe Weather on mobile